Time;durP1;ratioP1;P1;durP2;ratioP2;P2;SDS_P1;SDS_P2;PMS_P1;PMS_P2;Temp;Humidity;BMP_temperature;BMP_pressure;BME280_temperature;BME280_humidity;BME280_pressure;Samples;Min_cycle;Max_cycle;Signal;HPM_P1;HPM_P2
2023/07/03 00:00:38;;;;;;;18.10;4.40;;;13.20;37.30;;;;;;5092893;28;20457;-62
2023/07/03 00:03:05;;;;;;;22.07;4.90;;;13.20;38.00;;;;;;5091799;28;20456;-62
2023/07/03 00:05:31;;;;;;;13.80;4.77;;;13.30;38.00;;;;;;5092943;28;21013;-62
2023/07/03 00:07:58;;;;;;;12.90;3.70;;;13.20;37.60;;;;;;5094146;28;20476;-62
2023/07/03 00:10:25;;;;;;;14.10;4.93;;;13.30;36.40;;;;;;5095425;28;20460;-62
2023/07/03 00:12:52;;;;;;;16.00;4.20;;;13.30;37.00;;;;;;5095339;28;20452;-62
2023/07/03 00:15:20;;;;;;;11.40;4.03;;;13.30;36.60;;;;;;5096869;28;20448;-62
2023/07/03 00:17:47;;;;;;;25.50;5.00;;;13.30;36.30;;;;;;5096812;28;20453;-62
2023/07/03 00:20:14;;;;;;;15.77;5.30;;;13.30;36.60;;;;;;5096715;28;20815;-63
2023/07/03 00:22:41;;;;;;;20.17;4.50;;;13.20;38.00;;;;;;5095769;28;20457;-63
2023/07/03 00:25:09;;;;;;;23.37;4.83;;;13.20;38.00;;;;;;5095679;28;20477;-62
2023/07/03 00:27:36;;;;;;;16.03;4.73;;;13.20;38.00;;;;;;5096581;28;20449;-63
2023/07/03 00:30:03;;;;;;;14.97;4.10;;;13.20;37.90;;;;;;5096586;28;20794;-63
2023/07/03 00:32:31;;;;;;;11.03;4.03;;;13.30;37.30;;;;;;5095341;28;20506;-62
2023/07/03 00:34:58;;;;;;;15.43;4.47;;;13.30;37.20;;;;;;5096513;28;20481;-63
2023/07/03 00:37:26;;;;;;;14.77;4.00;;;13.30;37.40;;;;;;5096419;28;20511;-63
2023/07/03 00:39:52;;;;;;;13.40;4.60;;;13.20;38.00;;;;;;5096648;28;20820;-62
2023/07/03 00:42:19;;;;;;;16.73;4.20;;;13.10;37.90;;;;;;5095459;28;20457;-62
2023/07/03 00:44:46;;;;;;;13.30;3.93;;;13.00;37.80;;;;;;5095924;28;20467;-62
2023/07/03 00:47:13;;;;;;;13.40;3.80;;;13.00;37.80;;;;;;5096492;28;20457;-62
2023/07/03 00:49:41;;;;;;;15.37;4.70;;;12.80;39.60;;;;;;5096191;28;20882;-62
2023/07/03 00:52:09;;;;;;;23.67;5.07;;;12.70;40.20;;;;;;5095664;28;20453;-62
2023/07/03 00:54:36;;;;;;;18.73;5.20;;;12.70;41.20;;;;;;5095740;28;20464;-62
2023/07/03 00:57:03;;;;;;;17.87;4.60;;;12.70;41.20;;;;;;5096343;28;20460;-62
2023/07/03 00:59:30;;;;;;;20.43;5.07;;;12.70;41.40;;;;;;5096035;28;20456;-62
2023/07/03 01:02:06;;;;;;;10.30;4.33;;;12.70;42.00;;;;;;5094924;28;20460;-62
2023/07/03 01:04:38;;;;;;;15.50;4.27;;;12.60;42.10;;;;;;5095573;28;20462;-62
2023/07/03 01:07:10;;;;;;;13.27;4.40;;;12.60;42.80;;;;;;5096037;28;20456;-62
2023/07/03 01:09:46;;;;;;;15.83;4.83;;;12.70;42.50;;;;;;5095916;28;20448;-62
2023/07/03 01:12:13;;;;;;;17.63;4.83;;;12.70;42.70;;;;;;5094366;28;20459;-62
2023/07/03 01:14:41;;;;;;;24.60;5.03;;;12.80;43.00;;;;;;5095818;28;20448;-62
2023/07/03 01:17:09;;;;;;;27.30;4.60;;;12.80;42.80;;;;;;5095647;28;20463;-62
2023/07/03 01:19:38;;;;;;;20.73;4.90;;;12.70;42.90;;;;;;5095598;28;20464;-62
2023/07/03 01:22:13;;;;;;;16.17;4.40;;;12.70;43.80;;;;;;5094650;28;20464;-62
2023/07/03 01:24:45;;;;;;;18.83;4.90;;;12.70;45.00;;;;;;5095266;28;20437;-62
2023/07/03 01:27:14;;;;;;;18.63;5.60;;;12.70;44.90;;;;;;5096067;28;20447;-62
2023/07/03 01:29:43;;;;;;;16.77;4.00;;;12.80;45.40;;;;;;5095442;28;20459;-62
2023/07/03 01:32:12;;;;;;;13.87;4.00;;;12.80;44.70;;;;;;5094396;28;20524;-62
2023/07/03 01:34:45;;;;;;;19.17;4.70;;;12.80;45.20;;;;;;5094003;28;20452;-62
2023/07/03 01:37:14;;;;;;;14.57;4.93;;;12.90;45.10;;;;;;5095069;28;20951;-62
2023/07/03 01:39:43;;;;;;;11.17;4.50;;;12.90;45.40;;;;;;5094926;28;20954;-62
2023/07/03 01:42:10;;;;;;;22.90;4.80;;;12.90;46.50;;;;;;5093388;28;20867;-62
2023/07/03 01:44:37;;;;;;;14.17;4.37;;;12.80;46.50;;;;;;5095031;28;20535;-62
2023/07/03 01:47:06;;;;;;;12.93;3.93;;;12.90;46.60;;;;;;5095078;28;20457;-62
2023/07/03 01:49:33;;;;;;;14.00;4.93;;;12.80;46.50;;;;;;5095076;28;20448;-62
2023/07/03 01:52:07;;;;;;;14.90;4.97;;;12.70;46.40;;;;;;5094519;28;20460;-62
2023/07/03 01:54:41;;;;;;;14.40;5.27;;;12.60;46.30;;;;;;5095419;28;20468;-62
2023/07/03 01:57:11;;;;;;;15.50;4.83;;;12.50;46.30;;;;;;5094959;28;20459;-62
2023/07/03 01:59:40;;;;;;;20.03;5.60;;;12.50;47.70;;;;;;5094888;28;20437;-62
2023/07/03 02:02:11;;;;;;;23.63;5.50;;;12.40;48.90;;;;;;5093923;28;20856;-62
2023/07/03 02:04:42;;;;;;;17.40;5.37;;;12.40;49.80;;;;;;5094829;28;20803;-62
2023/07/03 02:07:11;;;;;;;17.50;6.40;;;12.40;49.40;;;;;;5094801;28;20430;-62
2023/07/03 02:09:39;;;;;;;14.20;4.90;;;12.40;49.50;;;;;;5094329;28;20464;-62
2023/07/03 02:12:08;;;;;;;14.07;4.53;;;12.40;50.40;;;;;;5093238;28;20510;-62
2023/07/03 02:14:36;;;;;;;12.47;5.30;;;12.40;50.50;;;;;;5093908;28;20509;-62
2023/07/03 02:17:03;;;;;;;16.60;5.47;;;12.40;50.50;;;;;;5094723;28;20468;-62
2023/07/03 02:19:31;;;;;;;22.63;7.03;;;12.40;51.40;;;;;;5094476;28;20452;-62
2023/07/03 02:21:58;;;;;;;16.27;5.07;;;12.40;51.20;;;;;;5093537;28;20542;-62
2023/07/03 02:24:26;;;;;;;13.67;5.37;;;12.50;50.90;;;;;;5093858;28;20959;-62
2023/07/03 02:26:54;;;;;;;19.03;6.30;;;12.50;51.50;;;;;;5094368;28;20460;-62
2023/07/03 02:29:21;;;;;;;21.87;5.70;;;12.60;51.90;;;;;;5094353;28;20465;-62
2023/07/03 02:31:49;;;;;;;14.43;5.67;;;12.50;51.70;;;;;;5092766;28;20455;-62
2023/07/03 02:34:16;;;;;;;21.93;5.50;;;12.50;52.40;;;;;;5093799;28;20449;-62
2023/07/03 02:36:46;;;;;;;27.53;5.60;;;12.60;52.10;;;;;;5094120;28;20477;-62
2023/07/03 02:39:12;;;;;;;19.37;5.43;;;12.60;52.50;;;;;;5094217;28;20467;-62
2023/07/03 02:41:39;;;;;;;22.23;4.37;;;12.60;51.70;;;;;;5092295;28;20808;-62
2023/07/03 02:44:06;;;;;;;16.47;5.57;;;12.60;51.90;;;;;;5093472;28;20465;-62
2023/07/03 02:46:33;;;;;;;19.20;5.73;;;12.70;52.00;;;;;;5094104;28;20456;-62
2023/07/03 02:49:01;;;;;;;19.60;5.80;;;12.80;51.70;;;;;;5093945;28;20452;-62
2023/07/03 02:51:28;;;;;;;17.57;4.33;;;12.90;51.90;;;;;;5093497;28;20452;-62
2023/07/03 02:53:54;;;;;;;21.90;5.53;;;12.90;51.30;;;;;;5093456;28;20452;-62
2023/07/03 02:56:21;;;;;;;19.80;6.83;;;12.90;51.40;;;;;;5093893;28;20475;-62
2023/07/03 02:58:48;;;;;;;16.60;4.80;;;12.90;51.40;;;;;;5093611;28;20453;-62
2023/07/03 03:01:15;;;;;;;18.20;6.30;;;12.90;52.30;;;;;;5093587;28;20961;-62
2023/07/03 03:03:44;;;;;;;20.67;5.57;;;12.90;53.10;;;;;;5093056;28;20936;-62
2023/07/03 03:06:12;;;;;;;13.87;4.70;;;13.00;51.50;;;;;;5093848;28;20525;-62
2023/07/03 03:08:39;;;;;;;16.43;4.47;;;13.10;51.50;;;;;;5093815;28;20826;-62
2023/07/03 03:11:07;;;;;;;25.80;4.73;;;13.10;51.10;;;;;;5092581;28;20448;-62
2023/07/03 03:13:34;;;;;;;14.67;4.70;;;13.20;51.60;;;;;;5092681;28;20928;-62
2023/07/03 03:16:01;;;;;;;19.87;4.63;;;13.30;51.20;;;;;;5093370;28;20480;-62
2023/07/03 03:18:28;;;;;;;19.00;4.70;;;13.30;51.30;;;;;;5093458;28;20940;-62
2023/07/03 03:20:54;;;;;;;18.23;4.73;;;13.40;50.50;;;;;;5092819;28;20936;-62
2023/07/03 03:23:23;;;;;;;12.90;4.70;;;13.50;50.50;;;;;;5093129;28;20799;-62
2023/07/03 03:25:49;;;;;;;20.33;5.20;;;13.50;50.20;;;;;;5093363;28;20936;-62
2023/07/03 03:28:16;;;;;;;21.43;4.93;;;13.50;50.80;;;;;;5093329;28;20450;-62
2023/07/03 03:30:43;;;;;;;13.87;4.30;;;13.60;50.70;;;;;;5092929;28;20446;-62
2023/07/03 03:33:10;;;;;;;20.20;5.13;;;13.60;50.60;;;;;;5092531;28;20449;-62
2023/07/03 03:35:36;;;;;;;17.87;4.07;;;13.60;50.40;;;;;;5093553;28;20832;-62
2023/07/03 03:38:03;;;;;;;23.60;4.90;;;13.60;50.50;;;;;;5093596;28;20814;-62
2023/07/03 03:40:31;;;;;;;16.27;4.73;;;13.60;51.20;;;;;;5093228;28;20472;-64
2023/07/03 03:42:58;;;;;;;17.30;4.10;;;13.60;50.80;;;;;;5090547;28;20450;-64
2023/07/03 03:45:25;;;;;;;22.47;4.57;;;13.70;50.90;;;;;;5097462;28;20441;-64
2023/07/03 03:47:52;;;;;;;26.13;4.93;;;13.70;51.20;;;;;;5097480;28;20457;-64
2023/07/03 03:50:19;;;;;;;21.93;4.93;;;13.60;51.00;;;;;;5097287;28;20461;-64
2023/07/03 03:52:45;;;;;;;17.63;5.40;;;13.60;51.20;;;;;;5093780;28;20461;-64
2023/07/03 03:55:12;;;;;;;23.83;4.60;;;13.60;51.30;;;;;;5076664;28;21043;-64
2023/07/03 03:57:40;;;;;;;22.97;5.60;;;13.50;51.90;;;;;;5076513;28;20489;-64
2023/07/03 04:00:15;;;;;;;17.97;5.23;;;13.50;52.90;;;;;;5076891;28;20829;-64
2023/07/03 04:02:43;;;;;;;18.40;5.20;;;13.40;53.90;;;;;;5092241;28;20462;-64
2023/07/03 04:05:11;;;;;;;23.20;5.23;;;13.40;54.20;;;;;;5097261;28;20536;-64
2023/07/03 04:07:38;;;;;;;17.23;5.40;;;13.40;55.00;;;;;;5096942;28;20461;-64
2023/07/03 04:10:07;;;;;;;18.40;5.80;;;13.30;55.50;;;;;;5096936;28;20963;-64
2023/07/03 04:12:33;;;;;;;22.80;6.77;;;13.30;55.60;;;;;;5096057;28;20452;-64
2023/07/03 04:15:02;;;;;;;25.20;5.50;;;13.30;55.70;;;;;;5096260;28;20817;-64
2023/07/03 04:17:29;;;;;;;21.90;6.83;;;13.30;55.60;;;;;;5096759;28;20477;-64
2023/07/03 04:19:56;;;;;;;31.40;7.20;;;13.40;55.70;;;;;;5096796;28;20530;-64
2023/07/03 04:22:23;;;;;;;29.23;6.10;;;13.50;55.80;;;;;;5095870;28;20456;-64
2023/07/03 04:24:50;;;;;;;19.37;8.00;;;13.60;55.90;;;;;;5096222;28;20457;-64
2023/07/03 04:27:17;;;;;;;16.60;5.30;;;13.70;56.00;;;;;;5096683;28;20446;-64
2023/07/03 04:29:44;;;;;;;18.67;6.00;;;13.90;56.20;;;;;;5096531;28;20815;-64
2023/07/03 04:32:12;;;;;;;19.37;6.33;;;14.00;56.30;;;;;;5094559;28;20445;-64
2023/07/03 04:34:39;;;;;;;26.10;6.20;;;14.10;54.50;;;;;;5097071;28;20450;-64
2023/07/03 04:37:08;;;;;;;19.77;5.57;;;14.20;53.90;;;;;;5097168;28;20478;-64
2023/07/03 04:39:35;;;;;;;17.23;6.03;;;14.30;53.70;;;;;;5096409;28;20548;-64
2023/07/03 04:42:01;;;;;;;27.23;6.23;;;14.40;53.70;;;;;;5095920;28;20449;-64
2023/07/03 04:44:29;;;;;;;22.43;5.10;;;14.50;53.00;;;;;;5095645;28;21050;-64
2023/07/03 04:46:56;;;;;;;23.77;4.63;;;14.60;52.50;;;;;;5096258;28;20446;-64
2023/07/03 04:49:26;;;;;;;19.50;5.17;;;14.60;52.40;;;;;;5095887;28;20457;-64
2023/07/03 04:51:54;;;;;;;34.43;5.20;;;14.70;52.60;;;;;;5095390;28;20453;-64
2023/07/03 04:54:21;;;;;;;19.83;5.17;;;14.70;51.80;;;;;;5095691;28;20811;-64
2023/07/03 04:56:48;;;;;;;20.50;5.60;;;14.80;52.50;;;;;;5094934;28;20480;-64
2023/07/03 04:59:15;;;;;;;15.70;5.60;;;14.90;52.20;;;;;;5095758;28;20457;-64
2023/07/03 05:01:43;;;;;;;17.27;4.60;;;14.90;51.40;;;;;;5095152;28;20453;-64
2023/07/03 05:04:10;;;;;;;22.97;5.20;;;15.00;51.40;;;;;;5095556;28;20863;-64
2023/07/03 05:06:38;;;;;;;18.43;5.50;;;15.10;51.50;;;;;;5095935;28;20446;-64
2023/07/03 05:09:06;;;;;;;21.47;6.20;;;15.10;51.40;;;;;;5095914;28;20807;-64
2023/07/03 05:11:35;;;;;;;19.73;5.10;;;15.20;50.80;;;;;;5095241;28;20442;-65
2023/07/03 05:14:02;;;;;;;27.03;5.47;;;15.20;50.20;;;;;;5095501;28;20780;-65
2023/07/03 05:16:31;;;;;;;19.97;5.47;;;15.30;49.40;;;;;;5095634;28;20831;-65
2023/07/03 05:18:59;;;;;;;24.17;5.83;;;15.40;50.60;;;;;;5095800;28;20824;-64
2023/07/03 05:21:26;;;;;;;23.27;5.27;;;15.40;49.90;;;;;;5094935;28;20454;-64
2023/07/03 05:23:54;;;;;;;22.10;5.17;;;15.40;49.00;;;;;;5094940;28;20454;-64
2023/07/03 05:26:20;;;;;;;20.23;5.23;;;15.50;51.30;;;;;;5095595;28;20457;-64
2023/07/03 05:28:47;;;;;;;19.70;5.87;;;15.50;49.00;;;;;;5095359;28;20453;-64
2023/07/03 05:31:14;;;;;;;19.50;5.33;;;15.60;49.10;;;;;;5095189;28;20843;-64
2023/07/03 05:33:41;;;;;;;19.73;5.40;;;15.70;49.20;;;;;;5094566;28;20446;-65
2023/07/03 05:36:08;;;;;;;24.37;5.50;;;15.80;49.30;;;;;;5095435;28;20450;-64
2023/07/03 05:38:34;;;;;;;21.20;5.60;;;15.80;49.30;;;;;;5095305;28;20449;-64
2023/07/03 05:41:03;;;;;;;26.87;4.77;;;15.80;49.30;;;;;;5094687;28;20454;-65
2023/07/03 05:43:29;;;;;;;24.23;5.13;;;15.80;49.30;;;;;;5093092;28;20457;-65
2023/07/03 05:45:56;;;;;;;21.60;5.53;;;15.80;49.30;;;;;;5094835;28;20453;-65
2023/07/03 05:48:24;;;;;;;22.90;5.50;;;15.80;49.30;;;;;;5095126;28;20446;-63
2023/07/03 05:50:51;;;;;;;18.93;5.20;;;15.80;49.30;;;;;;5094377;28;20924;-63
2023/07/03 05:53:18;;;;;;;15.90;5.07;;;15.90;49.40;;;;;;5094240;28;20450;-63
2023/07/03 05:55:52;;;;;;;22.67;5.60;;;15.90;49.40;;;;;;5094606;28;20460;-63
2023/07/03 05:58:22;;;;;;;20.90;5.33;;;15.90;49.40;;;;;;5094533;28;20980;-63
2023/07/03 06:00:49;;;;;;;22.73;5.60;;;15.90;49.40;;;;;;5094355;28;20884;-63
2023/07/03 06:03:16;;;;;;;21.33;5.77;;;16.00;49.50;;;;;;5093889;28;20461;-63
2023/07/03 06:05:43;;;;;;;21.30;5.63;;;15.90;49.40;;;;;;5094714;28;20792;-63
2023/07/03 06:08:10;;;;;;;23.93;6.10;;;16.00;49.50;;;;;;5093667;28;20457;-63
2023/07/03 06:10:38;;;;;;;18.07;5.57;;;16.20;49.70;;;;;;5094358;28;20454;-63
2023/07/03 06:13:05;;;;;;;16.73;5.30;;;16.20;48.30;;;;;;5092067;28;20446;-63
2023/07/03 06:15:34;;;;;;;21.90;6.73;;;16.40;48.20;;;;;;5094361;28;20448;-63
2023/07/03 06:18:02;;;;;;;14.70;4.60;;;16.40;46.90;;;;;;5094519;28;20505;-63
2023/07/03 06:20:29;;;;;;;23.00;6.27;;;16.60;47.30;;;;;;5094285;28;20540;-63
2023/07/03 06:22:56;;;;;;;13.13;3.70;;;16.60;45.70;;;;;;5092898;28;20964;-63
2023/07/03 06:25:22;;;;;;;19.70;6.13;;;16.70;45.90;;;;;;5094285;28;20450;-63
2023/07/03 06:27:49;;;;;;;18.40;4.47;;;16.80;46.10;;;;;;5094438;28;20863;-63
2023/07/03 06:30:16;;;;;;;18.40;4.87;;;16.80;44.30;;;;;;5094218;28;20477;-63
2023/07/03 06:32:44;;;;;;;15.30;4.63;;;17.20;46.00;;;;;;5092641;28;20461;-63
2023/07/03 06:35:11;;;;;;;30.73;5.53;;;17.30;44.80;;;;;;5093904;28;20453;-63
2023/07/03 06:37:38;;;;;;;18.67;5.20;;;17.40;43.20;;;;;;5094153;28;20465;-62
2023/07/03 06:40:09;;;;;;;23.37;5.27;;;17.40;42.90;;;;;;5094208;28;20450;-63
2023/07/03 06:42:36;;;;;;;25.03;6.20;;;17.60;42.10;;;;;;5092111;28;20456;-63
2023/07/03 06:45:03;;;;;;;24.97;6.50;;;17.80;42.30;;;;;;5091244;28;20832;-64
2023/07/03 06:47:30;;;;;;;24.83;6.40;;;17.90;42.40;;;;;;5092490;28;20957;-65
2023/07/03 06:49:58;;;;;;;18.13;5.30;;;17.80;41.40;;;;;;5092309;28;20812;-66
2023/07/03 06:52:25;;;;;;;14.00;4.03;;;17.80;42.30;;;;;;5086355;28;20836;-63
2023/07/03 06:54:52;;;;;;;18.85;6.00;;;18.00;42.50;;;;;;5091713;28;20820;-63
2023/07/03 06:57:18;;;;;;;19.70;5.37;;;18.10;42.60;;;;;;5093858;28;20216;-62
2023/07/03 06:59:45;;;;;;;19.37;5.50;;;18.30;41.40;;;;;;5093895;28;20454;-62
2023/07/03 07:02:12;;;;;;;18.60;5.60;;;18.20;39.20;;;;;;5092846;28;20465;-67
2023/07/03 07:04:39;;;;;;;18.20;5.47;;;18.30;40.30;;;;;;5092922;28;20450;-67
2023/07/03 07:07:07;;;;;;;19.83;5.50;;;18.20;40.40;;;;;;5093911;28;20453;-68
2023/07/03 07:09:34;;;;;;;19.93;6.10;;;18.20;42.70;;;;;;5093874;28;20460;-68
2023/07/03 07:12:01;;;;;;;24.73;5.23;;;18.40;39.20;;;;;;5092909;28;20450;-68
2023/07/03 07:14:28;;;;;;;22.47;5.50;;;18.80;38.70;;;;;;5093436;28;20464;-68
2023/07/03 07:16:55;;;;;;;25.83;6.10;;;19.30;38.10;;;;;;5093906;28;20482;-69
2023/07/03 07:19:22;;;;;;;15.77;5.33;;;19.30;34.60;;;;;;5096427;28;20458;-64
2023/07/03 07:21:49;;;;;;;18.60;5.00;;;19.40;35.60;;;;;;5096876;28;20786;-62
2023/07/03 07:24:20;;;;;;;15.67;4.80;;;20.00;35.30;;;;;;5096251;28;20506;-62
2023/07/03 07:26:47;;;;;;;17.07;4.87;;;20.10;33.50;;;;;;5095987;28;20803;-62
2023/07/03 07:29:14;;;;;;;16.20;5.33;;;20.30;30.50;;;;;;5096153;28;20489;-61
2023/07/03 07:31:41;;;;;;;16.70;5.40;;;20.50;27.50;;;;;;5096057;28;20450;-62
2023/07/03 07:34:10;;;;;;;15.60;5.10;;;20.70;27.50;;;;;;5094698;28;20458;-62
2023/07/03 07:36:38;;;;;;;16.93;5.43;;;20.60;24.50;;;;;;5095889;28;20476;-63
2023/07/03 07:39:05;;;;;;;13.23;4.53;;;20.80;26.80;;;;;;5096136;28;20454;-62
2023/07/03 07:41:33;;;;;;;17.93;4.53;;;20.80;25.90;;;;;;5095775;28;20455;-63
2023/07/03 07:44:00;;;;;;;16.80;5.03;;;21.00;21.50;;;;;;5095686;28;20457;-63
2023/07/03 07:46:29;;;;;;;15.93;4.90;;;21.20;23.80;;;;;;5094838;28;20450;-62
2023/07/03 07:48:57;;;;;;;11.50;4.23;;;21.90;22.60;;;;;;5095622;28;20456;-62
2023/07/03 07:51:24;;;;;;;15.40;5.10;;;21.70;20.90;;;;;;5094189;28;20515;-64
2023/07/03 07:53:51;;;;;;;14.80;4.77;;;21.10;19.30;;;;;;5095806;28;20873;-63
2023/07/03 07:56:18;;;;;;;22.20;5.53;;;21.30;24.10;;;;;;5094729;28;20476;-63
2023/07/03 07:58:46;;;;;;;14.00;4.53;;;21.20;18.20;;;;;;5095237;28;20569;-63
2023/07/03 08:01:14;;;;;;;15.67;4.97;;;21.00;20.30;;;;;;5094287;28;20476;-63
2023/07/03 08:03:43;;;;;;;14.80;4.00;;;20.70;20.20;;;;;;5095192;28;20458;-63
2023/07/03 08:06:11;;;;;;;15.93;4.50;;;20.50;17.90;;;;;;5095205;28;20454;-63
2023/07/03 08:08:38;;;;;;;14.57;4.30;;;20.90;18.00;;;;;;5095077;28;20454;-63
2023/07/03 08:11:07;;;;;;;14.93;3.77;;;20.20;15.00;;;;;;5095263;28;20465;-63
2023/07/03 08:13:35;;;;;;;14.53;4.10;;;20.60;19.00;;;;;;5095286;28;20828;-63
2023/07/03 08:16:03;;;;;;;14.80;4.67;;;21.10;16.70;;;;;;5094821;28;20453;-62
2023/07/03 08:18:31;;;;;;;12.80;4.00;;;20.90;13.10;;;;;;5095300;28;20477;-61
2023/07/03 08:20:58;;;;;;;17.57;4.43;;;21.40;16.00;;;;;;5095010;28;20449;-61
2023/07/03 08:23:25;;;;;;;16.53;4.30;;;21.40;13.20;;;;;;5095086;28;20486;-62
2023/07/03 08:25:54;;;;;;;10.60;4.30;;;21.60;13.40;;;;;;5094564;28;20458;-61
2023/07/03 08:28:21;;;;;;;21.93;4.50;;;22.00;12.00;;;;;;5095176;28;20812;-61
2023/07/03 08:30:48;;;;;;;11.93;3.50;;;22.20;6.10;;;;;;5093807;28;20453;-61
2023/07/03 08:33:17;;;;;;;13.80;3.80;;;22.40;6.30;;;;;;5095007;28;20461;-61
2023/07/03 08:35:44;;;;;;;12.70;3.67;;;21.80;6.60;;;;;;5094127;28;20956;-61
2023/07/03 08:38:10;;;;;;;10.50;3.43;;;21.70;8.10;;;;;;5094695;28;20477;-61
2023/07/03 08:40:38;;;;;;;14.40;3.93;;;21.20;7.40;;;;;;5095168;28;20454;-63
2023/07/03 08:43:08;;;;;;;12.03;3.30;;;20.80;8.70;;;;;;5095179;28;20465;-60
2023/07/03 08:45:38;;;;;;;14.70;4.00;;;20.40;8.90;;;;;;5096368;28;20434;-61
2023/07/03 08:48:10;;;;;;;12.40;3.80;;;20.10;12.30;;;;;;5095976;28;20483;-61
2023/07/03 08:50:41;;;;;;;14.27;4.10;;;20.10;10.60;;;;;;5096064;28;20814;-61
2023/07/03 08:53:12;;;;;;;11.60;3.50;;;20.10;10.00;;;;;;5095219;28;20465;-62
2023/07/03 08:55:44;;;;;;;14.47;4.10;;;20.30;10.20;;;;;;5096214;28;20438;-65
2023/07/03 08:58:11;;;;;;;12.97;3.67;;;20.40;4.90;;;;;;5096055;28;20457;-66
2023/07/03 09:00:45;;;;;;;16.50;4.47;;;20.80;7.70;;;;;;5095597;28;20461;-65
2023/07/03 09:03:21;;;;;;;12.83;3.10;;;20.90;9.50;;;;;;5095295;28;20448;-66
2023/07/03 09:05:59;;;;;;;12.27;4.00;;;20.80;7.40;;;;;;5095967;28;20454;-65
2023/07/03 09:08:31;;;;;;;15.97;3.40;;;20.80;9.50;;;;;;5095964;28;20441;-66
2023/07/03 09:10:58;;;;;;;13.60;4.57;;;20.70;10.10;;;;;;5095889;28;20435;-66
2023/07/03 09:13:31;;;;;;;12.43;3.77;;;20.60;10.80;;;;;;5094887;28;20456;-66
2023/07/03 09:16:03;;;;;;;13.80;4.77;;;20.20;10.20;;;;;;5095796;28;20438;-66
2023/07/03 09:18:35;;;;;;;16.33;3.67;;;20.20;12.30;;;;;;5095405;28;20458;-66
2023/07/03 09:21:03;;;;;;;11.43;3.87;;;20.20;10.90;;;;;;5095182;28;20435;-66
2023/07/03 09:23:37;;;;;;;13.67;3.90;;;20.10;12.00;;;;;;5095031;28;20499;-65
2023/07/03 09:26:09;;;;;;;16.30;4.00;;;20.20;12.30;;;;;;5095615;28;20457;-67
2023/07/03 09:28:40;;;;;;;15.80;3.60;;;20.20;12.30;;;;;;5095693;28;20537;-66
2023/07/03 09:31:06;;;;;;;12.30;3.37;;;20.40;12.30;;;;;;5095034;28;20556;-66
2023/07/03 09:33:33;;;;;;;16.57;4.33;;;20.20;6.60;;;;;;5094847;28;20457;-68
2023/07/03 09:36:05;;;;;;;11.73;2.93;;;20.30;7.50;;;;;;5095057;28;20460;-69
2023/07/03 09:38:36;;;;;;;15.37;3.43;;;20.60;9.50;;;;;;5095024;28;20465;-68
2023/07/03 09:41:05;;;;;;;12.53;3.63;;;20.80;10.00;;;;;;5094560;28;20435;-67
2023/07/03 09:43:32;;;;;;;14.00;3.30;;;20.80;7.30;;;;;;5094576;28;20960;-61
2023/07/03 09:46:13;;;;;;;17.93;3.63;;;20.90;7.20;;;;;;5095442;28;20454;-61
2023/07/03 09:48:40;;;;;;;13.00;3.53;;;21.10;8.10;;;;;;5095191;28;20483;-61
2023/07/03 09:51:22;;;;;;;12.20;3.40;;;20.90;8.20;;;;;;5094468;28;20454;-61
2023/07/03 09:53:50;;;;;;;12.73;3.70;;;21.10;8.90;;;;;;5093280;28;20450;-61
2023/07/03 09:56:21;;;;;;;14.63;3.00;;;21.20;7.30;;;;;;5092721;28;20454;-61
2023/07/03 09:58:50;;;;;;;11.70;3.13;;;20.50;4.90;;;;;;5093497;28;20478;-61
2023/07/03 10:01:20;;;;;;;12.63;3.10;;;20.00;4.50;;;;;;5093256;28;20454;-61
2023/07/03 10:03:46;;;;;;;12.27;3.33;;;19.70;6.90;;;;;;5093663;28;20449;-61
2023/07/03 10:06:18;;;;;;;12.40;3.07;;;19.40;6.50;;;;;;5093426;28;20476;-61
2023/07/03 10:08:47;;;;;;;12.00;3.47;;;19.30;8.10;;;;;;5093235;28;20473;-61
2023/07/03 10:11:20;;;;;;;22.40;3.77;;;19.20;9.70;;;;;;5093169;28;20453;-61
2023/07/03 10:13:51;;;;;;;12.87;3.43;;;19.10;11.40;;;;;;5093026;28;20457;-61
2023/07/03 10:16:20;;;;;;;12.07;3.90;;;18.90;11.40;;;;;;5092569;28;20548;-61
2023/07/03 10:18:55;;;;;;;23.07;4.83;;;18.40;13.90;;;;;;5092887;28;20479;-61
2023/07/03 10:21:24;;;;;;;16.03;3.70;;;18.10;12.50;;;;;;5093163;28;21038;-61
2023/07/03 10:23:52;;;;;;;16.40;4.10;;;18.10;14.60;;;;;;5092859;28;20503;-61
2023/07/03 10:26:21;;;;;;;16.90;5.30;;;18.20;17.30;;;;;;5092524;28;20450;-61
2023/07/03 10:28:53;;;;;;;10.70;3.10;;;18.30;15.10;;;;;;5092747;28;20450;-61
2023/07/03 10:31:25;;;;;;;16.80;4.10;;;18.40;15.20;;;;;;5093030;28;20454;-61
2023/07/03 10:34:01;;;;;;;18.57;4.37;;;18.60;16.00;;;;;;5093016;28;20450;-61
2023/07/03 10:36:32;;;;;;;16.50;3.90;;;19.00;15.10;;;;;;5092388;28;20445;-61
2023/07/03 10:39:05;;;;;;;11.07;4.17;;;19.40;14.10;;;;;;5092554;28;20520;-61
2023/07/03 10:41:38;;;;;;;20.50;3.30;;;19.80;12.00;;;;;;5092875;28;20450;-61
2023/07/03 10:44:09;;;;;;;16.90;3.40;;;20.40;11.60;;;;;;5092611;28;20468;-61
2023/07/03 10:46:40;;;;;;;11.60;3.97;;;20.70;12.70;;;;;;5092181;28;21002;-61
2023/07/03 10:49:12;;;;;;;15.37;4.10;;;20.60;12.70;;;;;;5092529;28;20450;-61
2023/07/03 10:51:52;;;;;;;15.67;3.93;;;20.90;10.80;;;;;;5092166;28;20882;-63
2023/07/03 10:54:26;;;;;;;22.73;4.67;;;20.90;12.80;;;;;;5092539;28;20521;-62
2023/07/03 10:56:56;;;;;;;12.73;3.87;;;20.70;9.10;;;;;;5093891;28;20437;-62
2023/07/03 10:59:27;;;;;;;15.07;4.10;;;20.80;10.70;;;;;;5093818;28;20473;-62
2023/07/03 11:02:03;;;;;;;16.63;4.60;;;20.90;12.90;;;;;;5093525;28;20905;-67
2023/07/03 11:04:44;;;;;;;12.43;3.30;;;21.20;9.70;;;;;;5093544;28;20454;-67
2023/07/03 11:07:19;;;;;;;11.17;3.30;;;21.50;9.00;;;;;;5093809;28;20465;-66
2023/07/03 11:09:54;;;;;;;16.20;3.70;;;21.90;9.80;;;;;;5093601;28;20803;-67
2023/07/03 11:12:31;;;;;;;16.93;3.97;;;22.30;8.40;;;;;;5093476;28;20444;-66
2023/07/03 11:15:09;;;;;;;10.63;3.33;;;22.20;8.10;;;;;;5093783;28;20434;-66
2023/07/03 11:17:42;;;;;;;11.17;4.00;;;22.80;8.10;;;;;;5093696;28;20441;-66
2023/07/03 11:20:17;;;;;;;11.60;3.50;;;23.20;5.20;;;;;;5093669;28;20427;-67
2023/07/03 11:22:51;;;;;;;11.73;3.67;;;23.40;3.80;;;;;;5092534;28;20455;-66
2023/07/03 11:25:25;;;;;;;14.70;3.70;;;23.90;6.90;;;;;;5089159;28;20917;-66
2023/07/03 11:28:04;;;;;;;15.83;4.00;;;24.50;2.20;;;;;;5091371;28;20457;-66
2023/07/03 11:30:31;;;;;;;15.27;4.00;;;24.30;1.00;;;;;;5091488;28;20457;-66
2023/07/03 11:32:59;;;;;;;14.87;4.03;;;24.60;1.00;;;;;;5091936;28;20472;-67
2023/07/03 11:35:26;;;;;;;12.43;3.77;;;25.20;1.00;;;;;;5090903;28;20454;-66
2023/07/03 11:38:05;;;;;;;12.20;3.90;;;25.60;1.00;;;;;;5091667;28;20461;-66
2023/07/03 11:40:35;;;;;;;13.33;4.40;;;25.30;1.00;;;;;;5091348;28;20468;-66
2023/07/03 11:43:23;;;;;;;11.57;4.47;;;25.10;1.00;;;;;;5091268;28;20454;-66
2023/07/03 11:46:02;;;;;;;14.73;3.30;;;25.40;1.00;;;;;;5091532;28;20449;-67
2023/07/03 11:48:30;;;;;;;15.70;3.80;;;25.30;1.00;;;;;;5092228;28;20848;-67
2023/07/03 11:50:59;;;;;;;10.30;3.97;;;26.50;1.00;;;;;;5091945;28;20450;-67
2023/07/03 11:53:35;;;;;;;17.13;4.90;;;27.90;1.00;;;;;;5091921;28;20961;-68
2023/07/03 11:56:02;;;;;;;14.80;4.13;;;27.00;1.00;;;;;;5091425;28;20528;-68
2023/07/03 11:58:32;;;;;;;18.70;4.00;;;26.50;1.00;;;;;;5091754;28;20476;-68
2023/07/03 12:01:25;;;;;;;13.60;4.13;;;26.30;1.00;;;;;;5092638;28;20447;-68
2023/07/03 12:03:54;;;;;;;18.73;4.43;;;26.60;1.00;;;;;;5092174;28;20517;-68
2023/07/03 12:06:47;;;;;;;13.97;4.20;;;27.10;1.00;;;;;;5095591;28;20771;-68
2023/07/03 12:09:30;;;;;;;14.53;4.80;;;27.20;1.00;;;;;;5096141;28;20488;-68
2023/07/03 12:12:18;;;;;;;11.67;3.40;;;26.40;1.00;;;;;;5096296;28;20460;-68
2023/07/03 12:14:56;;;;;;;15.93;4.63;;;25.80;1.00;;;;;;5095629;28;20451;-68
2023/07/03 12:17:27;;;;;;;15.47;3.63;;;26.00;1.00;;;;;;5096011;28;20454;-68
2023/07/03 12:19:57;;;;;;;12.20;3.87;;;25.60;1.00;;;;;;5095889;28;20446;-68
2023/07/03 12:22:27;;;;;;;22.90;4.27;;;24.70;1.00;;;;;;5096010;28;20813;-68
2023/07/03 12:25:06;;;;;;;17.10;4.60;;;24.20;1.00;;;;;;5095398;28;20480;-68
2023/07/03 12:27:33;;;;;;;13.40;4.23;;;23.70;1.00;;;;;;5095629;28;20454;-67
2023/07/03 12:30:01;;;;;;;12.10;3.67;;;23.40;1.00;;;;;;5095563;28;20619;-67
2023/07/03 12:32:30;;;;;;;12.40;3.80;;;24.70;1.00;;;;;;5095803;28;20450;-66
2023/07/03 12:35:11;;;;;;;9.10;3.20;;;25.60;1.00;;;;;;5094890;28;20449;-67
2023/07/03 12:37:42;;;;;;;10.37;3.83;;;26.20;1.00;;;;;;5095752;28;20941;-67
2023/07/03 12:40:12;;;;;;;15.93;4.20;;;25.60;1.00;;;;;;5095416;28;20806;-68
2023/07/03 12:42:39;;;;;;;19.13;4.20;;;25.30;1.00;;;;;;5095472;28;20540;-67
2023/07/03 12:45:15;;;;;;;12.17;3.80;;;26.00;1.00;;;;;;5095264;28;20454;-66
2023/07/03 12:47:42;;;;;;;13.80;3.73;;;27.10;1.00;;;;;;5095450;28;21021;-66